createdAt,value
2022-11-26T00:02:31.479Z,35.23
2022-11-26T00:07:31.863Z,47.33
2022-11-26T00:12:35.055Z,31.40
2022-11-26T00:17:33.062Z,27.67
2022-11-26T00:22:33.153Z,32.80
2022-11-26T00:27:32.597Z,32.17
2022-11-26T00:32:31.755Z,33.67
2022-11-26T00:37:34.903Z,29.60
2022-11-26T00:42:34.305Z,30.60
2022-11-26T00:47:32.342Z,38.37
2022-11-26T00:52:36.485Z,31.87
2022-11-26T00:57:36.287Z,36.33
2022-11-26T01:02:34.397Z,39.43
2022-11-26T01:07:32.528Z,33.80
2022-11-26T01:12:30.787Z,30.27
2022-11-26T01:17:30.256Z,37.73
2022-11-26T01:22:28.318Z,29.30
2022-11-26T01:27:26.349Z,41.57
2022-11-26T01:32:29.322Z,41.47
2022-11-26T01:37:29.046Z,31.93
2022-11-26T01:42:38.520Z,36.37
2022-11-26T01:47:36.586Z,38.70
2022-11-26T01:52:36.387Z,35.63
2022-11-26T01:57:38.479Z,28.70
2022-11-26T02:02:36.903Z,46.30
2022-11-26T02:07:37.133Z,37.00
2022-11-26T02:12:35.465Z,43.87
2022-11-26T02:17:37.761Z,37.57
2022-11-26T02:23:21.104Z,41.60
2022-11-26T02:28:42.326Z,41.40
2022-11-26T02:33:50.612Z,48.23
2022-11-26T02:38:48.652Z,53.10
2022-11-26T02:43:47.581Z,58.50
2022-11-26T02:48:50.667Z,49.87
2022-11-26T02:53:50.420Z,52.20
2022-11-26T02:58:49.606Z,69.50
2022-11-26T03:03:53.980Z,56.30
2022-11-26T03:08:52.124Z,60.83
2022-11-26T03:13:50.777Z,57.30
2022-11-26T03:18:50.164Z,64.20
2022-11-26T03:23:48.227Z,46.43
2022-11-26T03:28:46.250Z,52.77
2022-11-26T03:33:44.268Z,57.37
2022-11-26T03:38:43.688Z,54.00
2022-11-26T03:43:41.717Z,49.13
2022-11-26T03:48:39.759Z,59.83
2022-11-26T03:53:37.814Z,51.27
2022-11-26T03:58:37.383Z,54.50
2022-11-26T04:03:35.430Z,56.23
2022-11-26T04:08:33.832Z,58.20
2022-11-26T04:13:31.857Z,62.37
2022-11-26T04:18:31.269Z,70.77
2022-11-26T04:23:29.311Z,64.27
2022-11-26T04:28:27.419Z,53.93
2022-11-26T04:33:26.934Z,62.10
2022-11-26T04:38:26.339Z,67.07
2022-11-26T04:43:24.422Z,50.10
2022-11-26T04:48:22.584Z,54.00
2022-11-26T04:53:22.004Z,46.03
2022-11-26T04:58:21.816Z,36.10
2022-11-26T05:03:20.056Z,36.10
2022-11-26T05:08:18.143Z,41.37
2022-11-26T05:13:16.187Z,31.47
2022-11-26T05:18:15.605Z,33.73
2022-11-26T05:23:13.765Z,34.53
2022-11-26T05:28:11.818Z,31.03
2022-11-26T05:33:09.889Z,34.53
2022-11-26T05:38:09.335Z,29.80
2022-11-26T05:43:07.409Z,29.40
2022-11-26T05:48:06.035Z,27.67
2022-11-26T05:53:04.138Z,28.30
2022-11-26T05:58:03.558Z,27.80
2022-11-26T06:03:01.680Z,23.10
2022-11-26T06:07:59.840Z,28.07
2022-11-26T06:12:57.974Z,28.50
2022-11-26T06:17:57.401Z,31.50
2022-11-26T06:22:55.440Z,34.53
2022-11-26T06:27:53.508Z,25.77
2022-11-26T06:32:51.563Z,28.00
2022-11-26T06:37:51.009Z,26.40
2022-11-26T06:42:50.044Z,19.77
2022-11-26T06:47:48.617Z,22.80
2022-11-26T06:52:46.903Z,23.77
2022-11-26T06:57:46.479Z,20.87
2022-11-26T07:02:44.589Z,20.57
2022-11-26T07:07:42.767Z,21.27
2022-11-26T07:12:40.872Z,25.77
2022-11-26T07:17:40.255Z,30.50
2022-11-26T07:22:38.321Z,26.00
2022-11-26T07:27:36.388Z,20.67
2022-11-26T07:32:34.499Z,30.37
2022-11-26T07:37:36.485Z,21.80
2022-11-26T07:42:34.815Z,21.07
2022-11-26T07:47:32.846Z,20.20
2022-11-26T07:52:30.993Z,27.20
2022-11-26T07:57:30.382Z,45.33
2022-11-26T08:02:28.427Z,16.33
2022-11-26T08:07:29.489Z,19.23
2022-11-26T08:12:27.885Z,19.37
2022-11-26T08:17:27.267Z,20.63
2022-11-26T08:22:25.274Z,20.90
2022-11-26T08:27:23.317Z,16.63
2022-11-26T08:32:21.402Z,17.77
2022-11-26T08:37:20.789Z,18.57
2022-11-26T08:42:18.972Z,18.17
2022-11-26T08:47:17.027Z,19.73
2022-11-26T08:52:15.109Z,26.63
2022-11-26T08:57:14.542Z,18.23
2022-11-26T09:02:18.399Z,23.90
2022-11-26T09:07:17.270Z,17.03
2022-11-26T09:12:16.728Z,19.70
2022-11-26T09:17:14.771Z,21.33
2022-11-26T09:22:12.872Z,12.47
2022-11-26T09:27:12.062Z,10.90
2022-11-26T09:32:31.193Z,11.77
2022-11-26T09:37:29.518Z,19.40
2022-11-26T09:42:42.537Z,21.73
2022-11-26T09:47:45.536Z,19.23
2022-11-26T09:52:49.527Z,25.07
2022-11-26T09:57:52.559Z,14.17
2022-11-26T10:02:55.138Z,18.80
2022-11-26T10:08:04.166Z,17.03
2022-11-26T10:13:19.090Z,17.10
2022-11-26T10:18:26.865Z,15.60
2022-11-26T10:23:31.365Z,25.03
2022-11-26T10:28:33.042Z,24.37
2022-11-26T10:33:37.750Z,25.53
2022-11-26T10:38:35.843Z,10.93
2022-11-26T10:43:34.001Z,16.90
2022-11-26T10:48:34.979Z,16.17
2022-11-26T10:53:38.132Z,19.40
2022-11-26T10:58:41.742Z,17.80
2022-11-26T11:09:28.516Z,21.83
2022-11-26T11:14:29.519Z,16.90
2022-11-26T11:19:29.027Z,22.60
2022-11-26T11:24:29.621Z,25.10
2022-11-26T11:29:33.890Z,18.50
2022-11-26T11:34:38.244Z,18.33
2022-11-26T11:39:37.012Z,18.00
2022-11-26T11:44:40.442Z,19.43
2022-11-26T11:49:52.419Z,17.17
2022-11-26T11:55:00.606Z,17.93
2022-11-26T12:00:13.339Z,15.20
2022-11-26T12:05:41.983Z,16.77
2022-11-26T12:10:48.124Z,14.80
2022-11-26T12:15:52.730Z,16.43
2022-11-26T12:20:56.185Z,17.77
2022-11-26T12:25:59.642Z,9.80
2022-11-26T12:31:03.946Z,13.97
2022-11-26T12:36:10.847Z,10.90
2022-11-26T12:41:12.930Z,16.13
2022-11-26T12:46:18.304Z,9.43
2022-11-26T12:51:25.380Z,13.10
2022-11-26T12:56:29.508Z,10.37
2022-11-26T13:01:28.952Z,19.07
2022-11-26T13:06:38.656Z,12.10
2022-11-26T13:11:47.072Z,10.27
2022-11-26T13:16:54.909Z,10.90
2022-11-26T13:22:19.783Z,12.17
2022-11-26T13:27:34.631Z,10.33
2022-11-26T13:33:10.215Z,15.17
2022-11-26T13:38:20.978Z,30.23
2022-11-26T13:44:00.821Z,24.17
2022-11-26T13:49:03.572Z,25.40
2022-11-26T13:54:09.856Z,27.77
2022-11-26T13:59:16.421Z,17.60
2022-11-26T14:04:16.548Z,16.80
2022-11-26T14:09:47.694Z,27.30
2022-11-26T14:14:47.846Z,23.73
2022-11-26T14:19:59.998Z,25.60
2022-11-26T14:25:02.668Z,22.10
2022-11-26T14:30:16.015Z,19.63
2022-11-26T14:35:21.972Z,22.60
2022-11-26T14:40:25.501Z,15.87
2022-11-26T14:45:24.701Z,15.60
2022-11-26T14:50:25.176Z,22.63
2022-11-26T14:55:28.800Z,13.80
2022-11-26T15:00:29.254Z,22.33
2022-11-26T15:05:28.763Z,19.10
2022-11-26T15:10:30.937Z,23.10
2022-11-26T15:15:29.080Z,15.50
2022-11-26T15:20:27.903Z,22.40
2022-11-26T15:25:29.403Z,13.20
2022-11-26T15:30:29.530Z,15.10
2022-11-26T15:35:27.830Z,19.07
2022-11-26T15:40:31.440Z,21.40
2022-11-26T15:45:36.868Z,16.97
2022-11-26T15:50:38.231Z,11.73
2022-11-26T15:55:38.797Z,15.27
2022-11-26T16:00:39.695Z,16.60
2022-11-26T16:05:39.404Z,17.80
2022-11-26T16:10:39.573Z,16.07
2022-11-26T16:15:45.071Z,22.27
2022-11-26T16:20:43.157Z,22.53
2022-11-26T16:25:42.536Z,16.70
2022-11-26T16:30:43.578Z,15.33
2022-11-26T16:35:46.488Z,18.93
2022-11-26T16:40:46.608Z,19.73
2022-11-26T16:45:45.044Z,17.77
2022-11-26T16:50:43.144Z,23.93
2022-11-26T16:55:41.162Z,19.30
2022-11-26T17:00:41.533Z,23.13
2022-11-26T17:05:40.878Z,18.47
2022-11-26T17:10:39.949Z,20.20
2022-11-26T17:15:37.973Z,19.97
2022-11-26T17:20:37.339Z,20.30
2022-11-26T17:25:35.372Z,23.73
2022-11-26T17:30:33.443Z,20.17
2022-11-26T17:35:31.529Z,25.90
2022-11-26T17:40:31.067Z,32.10
2022-11-26T17:45:29.173Z,23.43
2022-11-26T17:50:28.993Z,21.17
2022-11-26T17:55:27.882Z,31.10
2022-11-26T18:00:29.499Z,28.13
2022-11-26T18:05:28.195Z,20.63
2022-11-26T18:10:26.282Z,29.93
2022-11-26T18:15:26.116Z,25.43
2022-11-26T18:20:28.030Z,24.73
2022-11-26T18:25:26.481Z,25.97
2022-11-26T18:30:25.065Z,24.83
2022-11-26T18:35:23.418Z,21.47
2022-11-26T18:40:22.824Z,21.97
2022-11-26T18:45:21.334Z,27.53
2022-11-26T18:50:19.617Z,24.67
2022-11-26T18:55:18.028Z,31.00
2022-11-26T19:00:18.245Z,26.90
2022-11-26T19:05:16.361Z,31.20
2022-11-26T19:10:14.414Z,25.40
2022-11-26T19:15:12.584Z,21.97
2022-11-26T19:20:13.648Z,24.30
2022-11-26T19:25:11.729Z,32.87
2022-11-26T19:30:10.730Z,25.53
2022-11-26T19:35:10.630Z,30.20
2022-11-26T19:40:11.478Z,24.00
2022-11-26T19:45:12.306Z,28.63
2022-11-26T19:50:11.115Z,21.40
2022-11-26T19:55:10.993Z,20.77
2022-11-26T20:00:10.555Z,25.60
2022-11-26T20:05:09.533Z,24.40
2022-11-26T20:10:10.390Z,34.03
2022-11-26T20:15:10.186Z,36.27
2022-11-26T20:20:09.476Z,24.03
2022-11-26T20:25:13.487Z,23.77
2022-11-26T20:30:12.440Z,25.77
2022-11-26T20:35:10.813Z,28.90
2022-11-26T20:40:11.007Z,20.30
2022-11-26T20:45:09.427Z,30.17
2022-11-26T20:50:10.648Z,22.87
2022-11-26T20:55:10.915Z,31.97
2022-11-26T21:00:10.175Z,26.90
2022-11-26T21:05:09.017Z,31.20
2022-11-26T21:10:10.626Z,28.37
2022-11-26T21:15:09.704Z,22.33
2022-11-26T21:20:09.341Z,22.53
2022-11-26T21:25:07.727Z,27.97
2022-11-26T21:30:09.062Z,27.83
2022-11-26T21:35:07.696Z,29.60
2022-11-26T21:40:06.222Z,34.63
2022-11-26T21:45:08.985Z,34.23
2022-11-26T21:50:08.531Z,26.60
2022-11-26T21:55:07.124Z,37.00
2022-11-26T22:00:08.436Z,29.17
2022-11-26T22:05:09.887Z,26.57
2022-11-26T22:10:09.481Z,33.83
2022-11-26T22:15:09.961Z,24.33
2022-11-26T22:20:09.395Z,34.43
2022-11-26T22:25:08.105Z,19.63
2022-11-26T22:30:09.060Z,25.73
2022-11-26T22:35:07.688Z,24.60
2022-11-26T22:40:06.951Z,28.77
2022-11-26T22:45:05.443Z,19.50
2022-11-26T22:50:05.364Z,25.77
2022-11-26T22:55:03.418Z,29.80
2022-11-26T23:00:01.438Z,24.37
2022-11-26T23:04:59.463Z,33.53
2022-11-26T23:09:58.916Z,29.37
2022-11-26T23:14:56.917Z,27.90
2022-11-26T23:19:54.925Z,24.13
2022-11-26T23:24:52.974Z,28.30
2022-11-26T23:29:52.401Z,25.17
2022-11-26T23:34:50.405Z,24.30
2022-11-26T23:39:48.439Z,15.77
2022-11-26T23:44:46.463Z,23.47
2022-11-26T23:49:45.889Z,17.80
2022-11-26T23:54:43.929Z,23.73
2022-11-26T23:59:42.089Z,28.33
